sensor_id;sensor_type;location;lat;lon;timestamp;P1;durP1;ratioP1;P2;durP2;ratioP2
8640;SDS011;4358;42.100;25.222;2023-07-09T00:01:51;4.50;;;3.97;;
8640;SDS011;4358;42.100;25.222;2023-07-09T00:04:18;4.40;;;3.87;;
8640;SDS011;4358;42.100;25.222;2023-07-09T00:06:45;4.43;;;3.87;;
8640;SDS011;4358;42.100;25.222;2023-07-09T00:09:13;4.20;;;3.80;;
8640;SDS011;4358;42.100;25.222;2023-07-09T00:11:41;6.33;;;4.00;;
8640;SDS011;4358;42.100;25.222;2023-07-09T00:14:09;4.70;;;3.87;;
8640;SDS011;4358;42.100;25.222;2023-07-09T00:16:38;5.07;;;4.20;;
8640;SDS011;4358;42.100;25.222;2023-07-09T00:19:09;5.37;;;4.87;;
8640;SDS011;4358;42.100;25.222;2023-07-09T00:21:39;8.20;;;7.40;;
8640;SDS011;4358;42.100;25.222;2023-07-09T00:24:06;6.17;;;4.20;;
8640;SDS011;4358;42.100;25.222;2023-07-09T00:26:35;5.70;;;5.10;;
8640;SDS011;4358;42.100;25.222;2023-07-09T00:29:07;6.80;;;6.00;;
8640;SDS011;4358;42.100;25.222;2023-07-09T00:31:35;8.00;;;5.23;;
8640;SDS011;4358;42.100;25.222;2023-07-09T00:34:05;5.53;;;4.40;;
8640;SDS011;4358;42.100;25.222;2023-07-09T00:36:33;5.27;;;4.20;;
8640;SDS011;4358;42.100;25.222;2023-07-09T00:39:00;6.03;;;4.20;;
8640;SDS011;4358;42.100;25.222;2023-07-09T00:41:31;5.37;;;4.77;;
8640;SDS011;4358;42.100;25.222;2023-07-09T00:44:00;11.00;;;5.20;;
8640;SDS011;4358;42.100;25.222;2023-07-09T00:50:00;6.23;;;5.50;;
8640;SDS011;4358;42.100;25.222;2023-07-09T00:52:35;6.07;;;5.47;;
8640;SDS011;4358;42.100;25.222;2023-07-09T00:55:07;7.97;;;6.17;;
8640;SDS011;4358;42.100;25.222;2023-07-09T00:57:39;9.37;;;7.30;;
8640;SDS011;4358;42.100;25.222;2023-07-09T01:00:10;11.40;;;9.47;;
8640;SDS011;4358;42.100;25.222;2023-07-09T01:02:40;11.37;;;8.90;;
8640;SDS011;4358;42.100;25.222;2023-07-09T01:05:13;7.03;;;5.90;;
8640;SDS011;4358;42.100;25.222;2023-07-09T01:07:42;6.10;;;5.50;;
8640;SDS011;4358;42.100;25.222;2023-07-09T01:10:11;4.90;;;4.43;;
8640;SDS011;4358;42.100;25.222;2023-07-09T01:12:38;6.10;;;4.60;;
8640;SDS011;4358;42.100;25.222;2023-07-09T01:15:05;5.73;;;4.90;;
8640;SDS011;4358;42.100;25.222;2023-07-09T01:17:33;5.63;;;4.77;;
8640;SDS011;4358;42.100;25.222;2023-07-09T01:20:02;5.17;;;4.70;;
8640;SDS011;4358;42.100;25.222;2023-07-09T01:22:31;6.97;;;5.10;;
8640;SDS011;4358;42.100;25.222;2023-07-09T01:25:00;10.10;;;6.90;;
8640;SDS011;4358;42.100;25.222;2023-07-09T01:27:28;8.67;;;7.10;;
8640;SDS011;4358;42.100;25.222;2023-07-09T01:29:59;12.13;;;10.67;;
8640;SDS011;4358;42.100;25.222;2023-07-09T01:32:27;11.17;;;9.97;;
8640;SDS011;4358;42.100;25.222;2023-07-09T01:34:55;9.07;;;8.10;;
8640;SDS011;4358;42.100;25.222;2023-07-09T01:37:31;6.33;;;5.73;;
8640;SDS011;4358;42.100;25.222;2023-07-09T01:39:59;7.03;;;5.37;;
8640;SDS011;4358;42.100;25.222;2023-07-09T01:42:26;7.37;;;5.50;;
8640;SDS011;4358;42.100;25.222;2023-07-09T01:44:54;5.70;;;5.20;;
8640;SDS011;4358;42.100;25.222;2023-07-09T01:47:21;5.50;;;5.00;;
8640;SDS011;4358;42.100;25.222;2023-07-09T01:49:49;6.90;;;5.67;;
8640;SDS011;4358;42.100;25.222;2023-07-09T01:52:22;6.67;;;6.07;;
8640;SDS011;4358;42.100;25.222;2023-07-09T01:54:53;6.07;;;5.47;;
8640;SDS011;4358;42.100;25.222;2023-07-09T01:57:21;6.07;;;5.47;;
8640;SDS011;4358;42.100;25.222;2023-07-09T01:59:49;5.60;;;5.00;;
8640;SDS011;4358;42.100;25.222;2023-07-09T02:02:18;7.80;;;5.40;;
8640;SDS011;4358;42.100;25.222;2023-07-09T02:04:46;5.77;;;5.17;;
8640;SDS011;4358;42.100;25.222;2023-07-09T02:07:13;6.17;;;5.67;;
8640;SDS011;4358;42.100;25.222;2023-07-09T02:09:41;6.83;;;6.23;;
8640;SDS011;4358;42.100;25.222;2023-07-09T02:12:09;11.03;;;8.23;;
8640;SDS011;4358;42.100;25.222;2023-07-09T02:14:37;9.60;;;7.47;;
8640;SDS011;4358;42.100;25.222;2023-07-09T02:17:05;8.70;;;7.17;;
8640;SDS011;4358;42.100;25.222;2023-07-09T02:19:32;8.83;;;7.43;;
8640;SDS011;4358;42.100;25.222;2023-07-09T02:21:59;8.30;;;7.50;;
8640;SDS011;4358;42.100;25.222;2023-07-09T02:24:26;8.53;;;6.93;;
8640;SDS011;4358;42.100;25.222;2023-07-09T02:26:53;8.23;;;7.37;;
8640;SDS011;4358;42.100;25.222;2023-07-09T02:29:21;8.70;;;7.80;;
8640;SDS011;4358;42.100;25.222;2023-07-09T02:31:48;9.00;;;7.43;;
8640;SDS011;4358;42.100;25.222;2023-07-09T02:34:16;7.30;;;6.60;;
8640;SDS011;4358;42.100;25.222;2023-07-09T02:36:43;9.17;;;6.93;;
8640;SDS011;4358;42.100;25.222;2023-07-09T02:39:10;7.07;;;6.33;;
8640;SDS011;4358;42.100;25.222;2023-07-09T02:41:38;7.73;;;6.23;;
8640;SDS011;4358;42.100;25.222;2023-07-09T02:44:05;6.53;;;5.93;;
8640;SDS011;4358;42.100;25.222;2023-07-09T02:46:33;7.77;;;6.47;;
8640;SDS011;4358;42.100;25.222;2023-07-09T02:49:04;7.53;;;5.97;;
8640;SDS011;4358;42.100;25.222;2023-07-09T02:51:32;6.70;;;6.10;;
8640;SDS011;4358;42.100;25.222;2023-07-09T02:53:59;8.07;;;6.37;;
8640;SDS011;4358;42.100;25.222;2023-07-09T02:56:28;7.90;;;5.97;;
8640;SDS011;4358;42.100;25.222;2023-07-09T02:58:55;6.97;;;6.33;;
8640;SDS011;4358;42.100;25.222;2023-07-09T03:01:22;8.17;;;6.83;;
8640;SDS011;4358;42.100;25.222;2023-07-09T03:03:51;7.27;;;6.50;;
8640;SDS011;4358;42.100;25.222;2023-07-09T03:06:18;7.77;;;6.23;;
8640;SDS011;4358;42.100;25.222;2023-07-09T03:08:46;6.27;;;5.67;;
8640;SDS011;4358;42.100;25.222;2023-07-09T03:11:13;6.23;;;5.63;;
8640;SDS011;4358;42.100;25.222;2023-07-09T03:13:41;7.80;;;5.90;;
8640;SDS011;4358;42.100;25.222;2023-07-09T03:16:09;6.30;;;5.70;;
8640;SDS011;4358;42.100;25.222;2023-07-09T03:18:35;11.00;;;6.07;;
8640;SDS011;4358;42.100;25.222;2023-07-09T03:21:04;7.23;;;6.10;;
8640;SDS011;4358;42.100;25.222;2023-07-09T03:23:31;6.10;;;5.50;;
8640;SDS011;4358;42.100;25.222;2023-07-09T03:25:57;7.23;;;5.53;;
8640;SDS011;4358;42.100;25.222;2023-07-09T03:28:25;7.50;;;5.87;;
8640;SDS011;4358;42.100;25.222;2023-07-09T03:30:53;7.17;;;6.47;;
8640;SDS011;4358;42.100;25.222;2023-07-09T03:33:21;5.80;;;5.17;;
8640;SDS011;4358;42.100;25.222;2023-07-09T03:35:49;7.77;;;6.57;;
8640;SDS011;4358;42.100;25.222;2023-07-09T03:38:17;8.73;;;6.70;;
8640;SDS011;4358;42.100;25.222;2023-07-09T03:40:44;10.83;;;8.13;;
8640;SDS011;4358;42.100;25.222;2023-07-09T03:43:11;9.30;;;7.53;;
8640;SDS011;4358;42.100;25.222;2023-07-09T03:45:38;10.53;;;7.33;;
8640;SDS011;4358;42.100;25.222;2023-07-09T03:48:05;9.53;;;7.40;;
8640;SDS011;4358;42.100;25.222;2023-07-09T03:50:32;11.17;;;7.40;;
8640;SDS011;4358;42.100;25.222;2023-07-09T03:52:59;8.07;;;6.60;;
8640;SDS011;4358;42.100;25.222;2023-07-09T03:55:27;7.10;;;6.40;;
8640;SDS011;4358;42.100;25.222;2023-07-09T03:57:54;6.20;;;5.43;;
8640;SDS011;4358;42.100;25.222;2023-07-09T04:00:22;6.80;;;6.10;;
8640;SDS011;4358;42.100;25.222;2023-07-09T04:02:49;6.23;;;5.63;;
8640;SDS011;4358;42.100;25.222;2023-07-09T04:05:17;6.87;;;5.57;;
8640;SDS011;4358;42.100;25.222;2023-07-09T04:07:44;8.73;;;5.60;;
8640;SDS011;4358;42.100;25.222;2023-07-09T04:10:11;8.53;;;5.00;;
8640;SDS011;4358;42.100;25.222;2023-07-09T04:12:39;5.50;;;5.00;;
8640;SDS011;4358;42.100;25.222;2023-07-09T04:15:07;6.93;;;5.70;;
8640;SDS011;4358;42.100;25.222;2023-07-09T04:17:34;6.57;;;5.20;;
8640;SDS011;4358;42.100;25.222;2023-07-09T04:20:02;6.73;;;4.93;;
8640;SDS011;4358;42.100;25.222;2023-07-09T04:22:32;6.27;;;4.87;;
8640;SDS011;4358;42.100;25.222;2023-07-09T04:24:59;9.63;;;5.30;;
8640;SDS011;4358;42.100;25.222;2023-07-09T04:27:27;6.50;;;5.80;;
8640;SDS011;4358;42.100;25.222;2023-07-09T04:29:56;5.37;;;4.83;;
8640;SDS011;4358;42.100;25.222;2023-07-09T04:32:23;7.93;;;5.03;;
8640;SDS011;4358;42.100;25.222;2023-07-09T04:34:49;5.87;;;4.67;;
8640;SDS011;4358;42.100;25.222;2023-07-09T04:37:16;6.40;;;5.13;;
8640;SDS011;4358;42.100;25.222;2023-07-09T04:39:44;6.23;;;4.90;;
8640;SDS011;4358;42.100;25.222;2023-07-09T04:42:14;5.40;;;4.57;;
8640;SDS011;4358;42.100;25.222;2023-07-09T04:44:43;6.00;;;5.40;;
8640;SDS011;4358;42.100;25.222;2023-07-09T04:47:12;5.70;;;4.43;;
8640;SDS011;4358;42.100;25.222;2023-07-09T04:49:39;5.43;;;4.93;;
8640;SDS011;4358;42.100;25.222;2023-07-09T04:52:07;6.00;;;4.93;;
8640;SDS011;4358;42.100;25.222;2023-07-09T04:54:36;5.47;;;4.97;;
8640;SDS011;4358;42.100;25.222;2023-07-09T04:57:05;8.00;;;5.30;;
8640;SDS011;4358;42.100;25.222;2023-07-09T04:59:32;7.07;;;4.77;;
8640;SDS011;4358;42.100;25.222;2023-07-09T05:01:59;5.43;;;4.90;;
8640;SDS011;4358;42.100;25.222;2023-07-09T05:04:28;11.50;;;5.00;;
8640;SDS011;4358;42.100;25.222;2023-07-09T05:06:54;5.57;;;5.07;;
8640;SDS011;4358;42.100;25.222;2023-07-09T05:09:22;5.60;;;5.00;;
8640;SDS011;4358;42.100;25.222;2023-07-09T05:11:49;5.17;;;4.60;;
8640;SDS011;4358;42.100;25.222;2023-07-09T05:14:17;9.93;;;4.77;;
8640;SDS011;4358;42.100;25.222;2023-07-09T05:16:44;5.30;;;4.57;;
8640;SDS011;4358;42.100;25.222;2023-07-09T05:19:11;8.40;;;4.50;;
8640;SDS011;4358;42.100;25.222;2023-07-09T05:21:39;5.13;;;4.03;;
8640;SDS011;4358;42.100;25.222;2023-07-09T05:24:06;9.07;;;4.40;;
8640;SDS011;4358;42.100;25.222;2023-07-09T05:26:34;5.87;;;4.30;;
8640;SDS011;4358;42.100;25.222;2023-07-09T05:29:02;4.90;;;4.40;;
8640;SDS011;4358;42.100;25.222;2023-07-09T05:31:29;5.33;;;4.27;;
8640;SDS011;4358;42.100;25.222;2023-07-09T05:33:56;4.87;;;4.37;;
8640;SDS011;4358;42.100;25.222;2023-07-09T05:36:23;5.30;;;4.20;;
8640;SDS011;4358;42.100;25.222;2023-07-09T05:38:54;5.07;;;4.57;;
8640;SDS011;4358;42.100;25.222;2023-07-09T05:41:21;5.63;;;3.90;;
8640;SDS011;4358;42.100;25.222;2023-07-09T05:43:49;4.77;;;3.40;;
8640;SDS011;4358;42.100;25.222;2023-07-09T05:46:16;4.50;;;3.30;;
8640;SDS011;4358;42.100;25.222;2023-07-09T05:48:44;3.80;;;3.50;;
8640;SDS011;4358;42.100;25.222;2023-07-09T05:51:11;4.53;;;3.10;;
8640;SDS011;4358;42.100;25.222;2023-07-09T05:53:38;3.50;;;3.20;;
8640;SDS011;4358;42.100;25.222;2023-07-09T05:56:06;5.83;;;3.27;;
8640;SDS011;4358;42.100;25.222;2023-07-09T05:58:33;3.83;;;3.17;;
8640;SDS011;4358;42.100;25.222;2023-07-09T06:01:01;4.27;;;3.40;;
8640;SDS011;4358;42.100;25.222;2023-07-09T06:03:28;3.87;;;3.13;;
8640;SDS011;4358;42.100;25.222;2023-07-09T06:05:55;4.10;;;3.67;;
8640;SDS011;4358;42.100;25.222;2023-07-09T06:08:23;3.20;;;2.90;;
8640;SDS011;4358;42.100;25.222;2023-07-09T06:10:54;3.57;;;2.90;;
8640;SDS011;4358;42.100;25.222;2023-07-09T06:13:24;4.50;;;3.30;;
8640;SDS011;4358;42.100;25.222;2023-07-09T06:15:53;6.70;;;3.40;;
8640;SDS011;4358;42.100;25.222;2023-07-09T06:18:21;6.90;;;3.00;;
8640;SDS011;4358;42.100;25.222;2023-07-09T06:20:50;4.13;;;3.20;;
8640;SDS011;4358;42.100;25.222;2023-07-09T06:23:18;3.60;;;3.30;;
8640;SDS011;4358;42.100;25.222;2023-07-09T06:25:45;3.43;;;3.00;;
8640;SDS011;4358;42.100;25.222;2023-07-09T06:28:14;3.30;;;3.00;;
8640;SDS011;4358;42.100;25.222;2023-07-09T06:30:43;4.27;;;3.03;;
8640;SDS011;4358;42.100;25.222;2023-07-09T06:33:10;4.80;;;3.40;;
8640;SDS011;4358;42.100;25.222;2023-07-09T06:35:39;6.60;;;2.87;;
8640;SDS011;4358;42.100;25.222;2023-07-09T06:38:12;4.17;;;3.00;;
8640;SDS011;4358;42.100;25.222;2023-07-09T06:40:39;8.10;;;3.20;;
8640;SDS011;4358;42.100;25.222;2023-07-09T06:43:05;4.87;;;3.20;;
8640;SDS011;4358;42.100;25.222;2023-07-09T06:45:32;3.53;;;2.70;;
8640;SDS011;4358;42.100;25.222;2023-07-09T06:48:00;3.67;;;3.23;;
8640;SDS011;4358;42.100;25.222;2023-07-09T06:50:28;5.60;;;3.23;;
8640;SDS011;4358;42.100;25.222;2023-07-09T06:52:54;3.60;;;3.30;;
8640;SDS011;4358;42.100;25.222;2023-07-09T06:55:21;4.53;;;3.00;;
8640;SDS011;4358;42.100;25.222;2023-07-09T06:57:48;3.30;;;2.90;;
8640;SDS011;4358;42.100;25.222;2023-07-09T07:00:15;3.47;;;2.70;;
8640;SDS011;4358;42.100;25.222;2023-07-09T07:02:42;3.43;;;3.13;;
8640;SDS011;4358;42.100;25.222;2023-07-09T07:05:10;3.43;;;2.67;;
8640;SDS011;4358;42.100;25.222;2023-07-09T07:07:37;3.87;;;2.77;;
8640;SDS011;4358;42.100;25.222;2023-07-09T07:10:04;2.93;;;2.67;;
8640;SDS011;4358;42.100;25.222;2023-07-09T07:12:40;2.77;;;2.57;;
8640;SDS011;4358;42.100;25.222;2023-07-09T07:15:09;3.87;;;2.90;;
8640;SDS011;4358;42.100;25.222;2023-07-09T07:17:37;2.90;;;2.60;;
8640;SDS011;4358;42.100;25.222;2023-07-09T07:20:04;3.33;;;2.60;;
8640;SDS011;4358;42.100;25.222;2023-07-09T07:22:33;2.70;;;2.30;;
8640;SDS011;4358;42.100;25.222;2023-07-09T07:25:00;4.53;;;2.80;;
8640;SDS011;4358;42.100;25.222;2023-07-09T07:27:26;2.30;;;2.10;;
8640;SDS011;4358;42.100;25.222;2023-07-09T07:29:53;3.67;;;2.63;;
8640;SDS011;4358;42.100;25.222;2023-07-09T07:32:20;2.70;;;2.50;;
8640;SDS011;4358;42.100;25.222;2023-07-09T07:34:47;2.80;;;2.37;;
8640;SDS011;4358;42.100;25.222;2023-07-09T07:37:14;2.90;;;2.60;;
8640;SDS011;4358;42.100;25.222;2023-07-09T07:39:43;3.30;;;2.53;;
8640;SDS011;4358;42.100;25.222;2023-07-09T07:42:10;3.53;;;2.73;;
8640;SDS011;4358;42.100;25.222;2023-07-09T07:44:37;7.33;;;2.67;;
8640;SDS011;4358;42.100;25.222;2023-07-09T07:47:04;4.07;;;2.67;;
8640;SDS011;4358;42.100;25.222;2023-07-09T07:49:31;3.03;;;2.73;;
8640;SDS011;4358;42.100;25.222;2023-07-09T07:51:58;4.40;;;2.80;;
8640;SDS011;4358;42.100;25.222;2023-07-09T07:54:28;2.80;;;2.60;;
8640;SDS011;4358;42.100;25.222;2023-07-09T07:56:58;3.07;;;2.73;;
8640;SDS011;4358;42.100;25.222;2023-07-09T07:59:25;4.97;;;2.90;;
8640;SDS011;4358;42.100;25.222;2023-07-09T08:01:52;3.40;;;2.67;;
8640;SDS011;4358;42.100;25.222;2023-07-09T08:04:18;3.07;;;2.77;;
8640;SDS011;4358;42.100;25.222;2023-07-09T08:06:45;4.50;;;2.70;;
8640;SDS011;4358;42.100;25.222;2023-07-09T08:09:12;2.77;;;2.57;;
8640;SDS011;4358;42.100;25.222;2023-07-09T08:11:39;3.77;;;2.50;;
8640;SDS011;4358;42.100;25.222;2023-07-09T08:14:07;3.80;;;2.63;;
8640;SDS011;4358;42.100;25.222;2023-07-09T08:16:35;3.93;;;2.70;;
8640;SDS011;4358;42.100;25.222;2023-07-09T08:19:02;5.17;;;2.57;;
8640;SDS011;4358;42.100;25.222;2023-07-09T08:21:29;4.63;;;2.97;;
8640;SDS011;4358;42.100;25.222;2023-07-09T08:23:55;3.07;;;2.80;;
8640;SDS011;4358;42.100;25.222;2023-07-09T08:26:22;4.53;;;2.90;;
8640;SDS011;4358;42.100;25.222;2023-07-09T08:28:49;3.50;;;2.80;;
8640;SDS011;4358;42.100;25.222;2023-07-09T08:31:18;3.77;;;2.53;;
8640;SDS011;4358;42.100;25.222;2023-07-09T08:33:45;3.23;;;2.93;;
8640;SDS011;4358;42.100;25.222;2023-07-09T08:36:12;3.70;;;2.60;;
8640;SDS011;4358;42.100;25.222;2023-07-09T08:38:38;3.90;;;2.67;;
8640;SDS011;4358;42.100;25.222;2023-07-09T08:41:07;3.37;;;2.73;;
8640;SDS011;4358;42.100;25.222;2023-07-09T08:43:45;2.97;;;2.67;;
8640;SDS011;4358;42.100;25.222;2023-07-09T08:46:24;6.10;;;2.80;;
8640;SDS011;4358;42.100;25.222;2023-07-09T08:48:56;2.80;;;2.60;;
8640;SDS011;4358;42.100;25.222;2023-07-09T08:51:28;2.93;;;2.63;;
8640;SDS011;4358;42.100;25.222;2023-07-09T08:54:01;3.30;;;2.70;;
8640;SDS011;4358;42.100;25.222;2023-07-09T08:56:29;2.90;;;2.60;;
8640;SDS011;4358;42.100;25.222;2023-07-09T08:58:58;3.30;;;2.47;;
8640;SDS011;4358;42.100;25.222;2023-07-09T09:01:30;4.40;;;2.73;;
8640;SDS011;4358;42.100;25.222;2023-07-09T09:04:03;3.80;;;2.60;;
8640;SDS011;4358;42.100;25.222;2023-07-09T09:06:37;3.40;;;2.70;;
8640;SDS011;4358;42.100;25.222;2023-07-09T09:09:12;3.30;;;2.60;;
8640;SDS011;4358;42.100;25.222;2023-07-09T09:11:47;6.07;;;3.07;;
8640;SDS011;4358;42.100;25.222;2023-07-09T09:14:26;3.43;;;2.70;;
8640;SDS011;4358;42.100;25.222;2023-07-09T09:16:55;4.60;;;2.63;;
8640;SDS011;4358;42.100;25.222;2023-07-09T09:19:23;3.03;;;2.73;;
8640;SDS011;4358;42.100;25.222;2023-07-09T09:21:56;3.28;;;2.92;;
8640;SDS011;4358;42.100;25.222;2023-07-09T09:24:26;2.88;;;2.58;;
8640;SDS011;4358;42.100;25.222;2023-07-09T09:26:58;3.45;;;2.63;;
8640;SDS011;4358;42.100;25.222;2023-07-09T09:29:25;3.35;;;2.60;;
8640;SDS011;4358;42.100;25.222;2023-07-09T09:31:53;2.45;;;2.25;;
8640;SDS011;4358;42.100;25.222;2023-07-09T09:34:24;8.60;;;2.50;;
8640;SDS011;4358;42.100;25.222;2023-07-09T09:36:53;3.60;;;2.47;;
8640;SDS011;4358;42.100;25.222;2023-07-09T09:39:22;2.90;;;2.50;;
8640;SDS011;4358;42.100;25.222;2023-07-09T09:41:51;2.53;;;2.30;;
8640;SDS011;4358;42.100;25.222;2023-07-09T09:44:20;6.55;;;2.63;;
8640;SDS011;4358;42.100;25.222;2023-07-09T09:46:50;2.65;;;2.45;;
8640;SDS011;4358;42.100;25.222;2023-07-09T09:49:19;3.15;;;2.47;;
8640;SDS011;4358;42.100;25.222;2023-07-09T09:51:46;2.97;;;2.20;;
8640;SDS011;4358;42.100;25.222;2023-07-09T09:54:16;4.00;;;2.78;;
8640;SDS011;4358;42.100;25.222;2023-07-09T09:56:45;2.83;;;2.53;;
8640;SDS011;4358;42.100;25.222;2023-07-09T09:59:16;2.67;;;2.47;;
8640;SDS011;4358;42.100;25.222;2023-07-09T10:01:45;2.88;;;2.33;;
8640;SDS011;4358;42.100;25.222;2023-07-09T10:04:16;3.72;;;2.40;;
8640;SDS011;4358;42.100;25.222;2023-07-09T10:06:47;3.05;;;2.50;;
8640;SDS011;4358;42.100;25.222;2023-07-09T10:09:20;3.35;;;2.45;;
8640;SDS011;4358;42.100;25.222;2023-07-09T10:11:55;2.78;;;2.42;;
8640;SDS011;4358;42.100;25.222;2023-07-09T10:14:33;3.08;;;2.60;;
8640;SDS011;4358;42.100;25.222;2023-07-09T10:17:07;2.50;;;2.30;;
8640;SDS011;4358;42.100;25.222;2023-07-09T10:19:48;2.95;;;2.42;;
8640;SDS011;4358;42.100;25.222;2023-07-09T10:22:24;3.08;;;2.60;;
8640;SDS011;4358;42.100;25.222;2023-07-09T10:25:09;2.50;;;2.30;;
8640;SDS011;4358;42.100;25.222;2023-07-09T10:27:50;2.80;;;2.33;;
8640;SDS011;4358;42.100;25.222;2023-07-09T10:30:33;4.40;;;2.58;;
8640;SDS011;4358;42.100;25.222;2023-07-09T10:33:12;6.32;;;2.78;;
8640;SDS011;4358;42.100;25.222;2023-07-09T10:35:45;3.47;;;2.45;;
8640;SDS011;4358;42.100;25.222;2023-07-09T10:38:29;3.22;;;2.92;;
8640;SDS011;4358;42.100;25.222;2023-07-09T10:41:11;2.67;;;2.40;;
8640;SDS011;4358;42.100;25.222;2023-07-09T10:43:41;3.35;;;2.60;;
8640;SDS011;4358;42.100;25.222;2023-07-09T10:46:14;3.00;;;2.70;;
8640;SDS011;4358;42.100;25.222;2023-07-09T10:48:44;2.83;;;2.63;;
8640;SDS011;4358;42.100;25.222;2023-07-09T10:51:16;3.53;;;2.70;;
8640;SDS011;4358;42.100;25.222;2023-07-09T10:53:49;2.90;;;2.60;;
8640;SDS011;4358;42.100;25.222;2023-07-09T10:56:23;3.13;;;2.80;;
8640;SDS011;4358;42.100;25.222;2023-07-09T10:58:55;4.35;;;3.00;;
8640;SDS011;4358;42.100;25.222;2023-07-09T11:01:32;2.83;;;2.47;;
8640;SDS011;4358;42.100;25.222;2023-07-09T11:04:02;4.65;;;2.70;;
8640;SDS011;4358;42.100;25.222;2023-07-09T11:06:34;2.67;;;2.47;;
8640;SDS011;4358;42.100;25.222;2023-07-09T11:09:06;3.33;;;2.60;;
8640;SDS011;4358;42.100;25.222;2023-07-09T11:11:38;3.00;;;2.70;;
8640;SDS011;4358;42.100;25.222;2023-07-09T11:14:14;3.67;;;2.72;;
8640;SDS011;4358;42.100;25.222;2023-07-09T11:16:51;2.90;;;2.70;;
8640;SDS011;4358;42.100;25.222;2023-07-09T11:19:22;2.78;;;2.53;;
8640;SDS011;4358;42.100;25.222;2023-07-09T11:21:57;3.50;;;2.65;;
8640;SDS011;4358;42.100;25.222;2023-07-09T11:24:35;4.55;;;2.78;;
8640;SDS011;4358;42.100;25.222;2023-07-09T11:27:21;4.90;;;2.60;;
8640;SDS011;4358;42.100;25.222;2023-07-09T11:29:56;3.83;;;2.50;;
8640;SDS011;4358;42.100;25.222;2023-07-09T11:32:24;2.55;;;2.15;;
8640;SDS011;4358;42.100;25.222;2023-07-09T11:34:52;2.50;;;2.30;;
8640;SDS011;4358;42.100;25.222;2023-07-09T11:37:23;3.13;;;2.05;;
8640;SDS011;4358;42.100;25.222;2023-07-09T11:39:53;2.50;;;2.30;;
8640;SDS011;4358;42.100;25.222;2023-07-09T11:42:29;2.70;;;2.40;;
8640;SDS011;4358;42.100;25.222;2023-07-09T11:45:00;2.38;;;2.17;;
8640;SDS011;4358;42.100;25.222;2023-07-09T11:47:33;2.78;;;2.42;;
8640;SDS011;4358;42.100;25.222;2023-07-09T11:50:04;3.20;;;2.50;;
8640;SDS011;4358;42.100;25.222;2023-07-09T11:52:33;2.30;;;2.10;;
8640;SDS011;4358;42.100;25.222;2023-07-09T11:55:19;2.30;;;2.08;;
8640;SDS011;4358;42.100;25.222;2023-07-09T11:57:52;2.63;;;2.38;;
8640;SDS011;4358;42.100;25.222;2023-07-09T12:00:20;3.03;;;2.72;;
8640;SDS011;4358;42.100;25.222;2023-07-09T12:02:47;2.33;;;2.13;;
8640;SDS011;4358;42.100;25.222;2023-07-09T12:05:18;4.00;;;2.35;;
8640;SDS011;4358;42.100;25.222;2023-07-09T12:07:47;2.63;;;2.42;;
8640;SDS011;4358;42.100;25.222;2023-07-09T12:10:19;2.40;;;2.20;;
8640;SDS011;4358;42.100;25.222;2023-07-09T12:12:48;2.83;;;2.20;;
8640;SDS011;4358;42.100;25.222;2023-07-09T12:15:18;2.30;;;2.10;;
8640;SDS011;4358;42.100;25.222;2023-07-09T12:17:55;2.33;;;2.10;;
8640;SDS011;4358;42.100;25.222;2023-07-09T12:20:23;2.58;;;2.38;;
8640;SDS011;4358;42.100;25.222;2023-07-09T12:22:50;2.65;;;2.45;;
8640;SDS011;4358;42.100;25.222;2023-07-09T12:25:20;2.60;;;2.40;;
8640;SDS011;4358;42.100;25.222;2023-07-09T12:27:50;2.38;;;2.17;;
8640;SDS011;4358;42.100;25.222;2023-07-09T12:30:17;3.42;;;2.28;;
8640;SDS011;4358;42.100;25.222;2023-07-09T12:32:45;2.42;;;2.22;;
8640;SDS011;4358;42.100;25.222;2023-07-09T12:35:15;2.53;;;2.30;;
8640;SDS011;4358;42.100;25.222;2023-07-09T12:37:43;2.50;;;2.30;;
8640;SDS011;4358;42.100;25.222;2023-07-09T12:40:14;3.80;;;2.53;;
8640;SDS011;4358;42.100;25.222;2023-07-09T12:42:44;2.88;;;2.25;;
8640;SDS011;4358;42.100;25.222;2023-07-09T12:45:15;2.47;;;2.28;;
8640;SDS011;4358;42.100;25.222;2023-07-09T12:47:44;3.85;;;2.40;;
8640;SDS011;4358;42.100;25.222;2023-07-09T12:50:21;2.67;;;2.47;;
8640;SDS011;4358;42.100;25.222;2023-07-09T12:52:56;2.70;;;2.30;;
8640;SDS011;4358;42.100;25.222;2023-07-09T12:55:26;2.75;;;2.22;;
8640;SDS011;4358;42.100;25.222;2023-07-09T12:57:57;2.67;;;2.40;;
8640;SDS011;4358;42.100;25.222;2023-07-09T13:00:27;4.30;;;2.40;;
8640;SDS011;4358;42.100;25.222;2023-07-09T13:02:57;2.67;;;2.47;;
8640;SDS011;4358;42.100;25.222;2023-07-09T13:05:25;3.00;;;2.70;;
8640;SDS011;4358;42.100;25.222;2023-07-09T13:07:53;2.80;;;2.60;;
8640;SDS011;4358;42.100;25.222;2023-07-09T13:10:25;2.92;;;2.60;;
8640;SDS011;4358;42.100;25.222;2023-07-09T13:12:54;3.72;;;2.60;;
8640;SDS011;4358;42.100;25.222;2023-07-09T13:15:25;3.70;;;2.50;;
8640;SDS011;4358;42.100;25.222;2023-07-09T13:17:58;3.42;;;2.45;;
8640;SDS011;4358;42.100;25.222;2023-07-09T13:20:27;2.35;;;2.15;;
8640;SDS011;4358;42.100;25.222;2023-07-09T13:22:54;3.85;;;2.50;;
8640;SDS011;4358;42.100;25.222;2023-07-09T13:25:21;2.20;;;2.00;;
8640;SDS011;4358;42.100;25.222;2023-07-09T13:27:48;2.78;;;2.30;;
8640;SDS011;4358;42.100;25.222;2023-07-09T13:30:16;2.97;;;2.30;;
8640;SDS011;4358;42.100;25.222;2023-07-09T13:32:45;2.65;;;2.45;;
8640;SDS011;4358;42.100;25.222;2023-07-09T13:35:14;2.30;;;2.10;;
8640;SDS011;4358;42.100;25.222;2023-07-09T13:37:43;2.70;;;2.50;;
8640;SDS011;4358;42.100;25.222;2023-07-09T13:40:11;3.75;;;2.70;;
8640;SDS011;4358;42.100;25.222;2023-07-09T13:42:39;3.53;;;2.38;;
8640;SDS011;4358;42.100;25.222;2023-07-09T13:45:15;2.67;;;2.40;;
8640;SDS011;4358;42.100;25.222;2023-07-09T13:47:45;2.33;;;2.13;;
8640;SDS011;4358;42.100;25.222;2023-07-09T13:50:12;2.40;;;2.20;;
8640;SDS011;4358;42.100;25.222;2023-07-09T13:52:41;4.03;;;2.20;;
8640;SDS011;4358;42.100;25.222;2023-07-09T13:55:11;2.40;;;2.20;;
8640;SDS011;4358;42.100;25.222;2023-07-09T13:57:43;2.40;;;2.20;;
8640;SDS011;4358;42.100;25.222;2023-07-09T14:00:10;2.88;;;2.58;;
8640;SDS011;4358;42.100;25.222;2023-07-09T14:02:38;3.38;;;2.72;;
8640;SDS011;4358;42.100;25.222;2023-07-09T14:05:07;2.53;;;2.20;;
8640;SDS011;4358;42.100;25.222;2023-07-09T14:07:36;3.38;;;2.30;;
8640;SDS011;4358;42.100;25.222;2023-07-09T14:10:09;2.30;;;2.10;;
8640;SDS011;4358;42.100;25.222;2023-07-09T14:12:38;2.45;;;2.25;;
8640;SDS011;4358;42.100;25.222;2023-07-09T14:15:12;3.13;;;2.28;;
8640;SDS011;4358;42.100;25.222;2023-07-09T14:17:41;2.95;;;2.10;;
8640;SDS011;4358;42.100;25.222;2023-07-09T14:20:11;2.40;;;2.17;;
8640;SDS011;4358;42.100;25.222;2023-07-09T14:22:40;4.53;;;1.90;;
8640;SDS011;4358;42.100;25.222;2023-07-09T14:25:14;2.28;;;2.08;;
8640;SDS011;4358;42.100;25.222;2023-07-09T14:27:43;2.40;;;2.20;;
8640;SDS011;4358;42.100;25.222;2023-07-09T14:30:13;2.30;;;2.10;;
8640;SDS011;4358;42.100;25.222;2023-07-09T14:32:41;3.28;;;2.97;;
8640;SDS011;4358;42.100;25.222;2023-07-09T14:35:14;4.10;;;2.17;;
8640;SDS011;4358;42.100;25.222;2023-07-09T14:37:46;2.72;;;2.53;;
8640;SDS011;4358;42.100;25.222;2023-07-09T14:40:14;2.50;;;2.30;;
8640;SDS011;4358;42.100;25.222;2023-07-09T14:42:43;2.67;;;2.42;;
8640;SDS011;4358;42.100;25.222;2023-07-09T14:45:17;3.55;;;2.30;;
8640;SDS011;4358;42.100;25.222;2023-07-09T14:47:46;2.38;;;2.17;;
8640;SDS011;4358;42.100;25.222;2023-07-09T14:50:13;2.63;;;2.40;;
8640;SDS011;4358;42.100;25.222;2023-07-09T14:52:42;6.47;;;2.33;;
8640;SDS011;4358;42.100;25.222;2023-07-09T14:55:14;3.55;;;2.70;;
8640;SDS011;4358;42.100;25.222;2023-07-09T14:57:42;3.35;;;2.40;;
8640;SDS011;4358;42.100;25.222;2023-07-09T15:00:14;3.67;;;2.45;;
8640;SDS011;4358;42.100;25.222;2023-07-09T15:02:42;2.90;;;2.42;;
8640;SDS011;4358;42.100;25.222;2023-07-09T15:05:12;2.60;;;2.22;;
8640;SDS011;4358;42.100;25.222;2023-07-09T15:07:42;4.55;;;2.63;;
8640;SDS011;4358;42.100;25.222;2023-07-09T15:10:12;3.80;;;2.60;;
8640;SDS011;4358;42.100;25.222;2023-07-09T15:12:39;2.90;;;2.53;;
8640;SDS011;4358;42.100;25.222;2023-07-09T15:15:12;4.13;;;2.50;;
8640;SDS011;4358;42.100;25.222;2023-07-09T15:17:42;3.20;;;2.78;;